sensor_id;sensor_type;location;lat;lon;timestamp;P1;durP1;ratioP1;P2;durP2;ratioP2
49029;SDS011;43337;52.070;4.508;2022-07-30T00:02:03;9.23;;;3.92;;
49029;SDS011;43337;52.070;4.508;2022-07-30T00:04:29;7.43;;;3.35;;
49029;SDS011;43337;52.070;4.508;2022-07-30T00:06:56;8.13;;;4.00;;
49029;SDS011;43337;52.070;4.508;2022-07-30T00:09:22;12.65;;;6.20;;
49029;SDS011;43337;52.070;4.508;2022-07-30T00:11:47;14.27;;;6.88;;
49029;SDS011;43337;52.070;4.508;2022-07-30T00:14:12;13.20;;;7.05;;
49029;SDS011;43337;52.070;4.508;2022-07-30T00:16:38;16.98;;;6.82;;
49029;SDS011;43337;52.070;4.508;2022-07-30T00:19:03;9.18;;;4.85;;
49029;SDS011;43337;52.070;4.508;2022-07-30T00:21:29;13.68;;;6.35;;
49029;SDS011;43337;52.070;4.508;2022-07-30T00:23:54;11.27;;;4.53;;
49029;SDS011;43337;52.070;4.508;2022-07-30T00:26:20;9.60;;;3.78;;
49029;SDS011;43337;52.070;4.508;2022-07-30T00:28:45;9.55;;;3.92;;
49029;SDS011;43337;52.070;4.508;2022-07-30T00:31:10;8.25;;;3.53;;
49029;SDS011;43337;52.070;4.508;2022-07-30T00:33:36;8.60;;;4.07;;
49029;SDS011;43337;52.070;4.508;2022-07-30T00:36:01;8.20;;;3.95;;
49029;SDS011;43337;52.070;4.508;2022-07-30T00:38:30;9.20;;;3.58;;
49029;SDS011;43337;52.070;4.508;2022-07-30T00:40:55;7.90;;;3.70;;
49029;SDS011;43337;52.070;4.508;2022-07-30T00:43:22;10.55;;;4.07;;
49029;SDS011;43337;52.070;4.508;2022-07-30T00:45:47;9.82;;;3.60;;
49029;SDS011;43337;52.070;4.508;2022-07-30T00:48:13;10.55;;;3.85;;
49029;SDS011;43337;52.070;4.508;2022-07-30T00:50:39;10.90;;;3.70;;
49029;SDS011;43337;52.070;4.508;2022-07-30T00:53:05;6.25;;;3.38;;
49029;SDS011;43337;52.070;4.508;2022-07-30T00:55:33;7.25;;;3.65;;
49029;SDS011;43337;52.070;4.508;2022-07-30T00:57:59;9.45;;;4.18;;
49029;SDS011;43337;52.070;4.508;2022-07-30T01:00:25;15.93;;;7.53;;
49029;SDS011;43337;52.070;4.508;2022-07-30T01:02:51;18.13;;;9.07;;
49029;SDS011;43337;52.070;4.508;2022-07-30T01:05:17;11.02;;;4.72;;
49029;SDS011;43337;52.070;4.508;2022-07-30T01:07:43;8.52;;;4.07;;
49029;SDS011;43337;52.070;4.508;2022-07-30T01:10:09;7.85;;;3.65;;
49029;SDS011;43337;52.070;4.508;2022-07-30T01:12:39;9.32;;;3.65;;
49029;SDS011;43337;52.070;4.508;2022-07-30T01:15:07;8.13;;;3.28;;
49029;SDS011;43337;52.070;4.508;2022-07-30T01:17:35;8.63;;;3.83;;
49029;SDS011;43337;52.070;4.508;2022-07-30T01:20:03;6.05;;;3.00;;
49029;SDS011;43337;52.070;4.508;2022-07-30T01:22:34;9.77;;;3.40;;
49029;SDS011;43337;52.070;4.508;2022-07-30T01:25:49;8.55;;;3.50;;
49029;SDS011;43337;52.070;4.508;2022-07-30T01:28:29;8.40;;;3.50;;
49029;SDS011;43337;52.070;4.508;2022-07-30T01:31:03;8.98;;;3.40;;
49029;SDS011;43337;52.070;4.508;2022-07-30T01:33:31;6.13;;;3.70;;
49029;SDS011;43337;52.070;4.508;2022-07-30T01:36:00;8.05;;;3.28;;
49029;SDS011;43337;52.070;4.508;2022-07-30T01:38:27;8.10;;;3.30;;
49029;SDS011;43337;52.070;4.508;2022-07-30T01:40:54;6.97;;;3.53;;
49029;SDS011;43337;52.070;4.508;2022-07-30T01:43:21;11.48;;;4.65;;
49029;SDS011;43337;52.070;4.508;2022-07-30T01:45:49;8.65;;;3.45;;
49029;SDS011;43337;52.070;4.508;2022-07-30T01:48:16;9.95;;;3.53;;
49029;SDS011;43337;52.070;4.508;2022-07-30T01:50:44;6.47;;;3.40;;
49029;SDS011;43337;52.070;4.508;2022-07-30T01:53:13;6.90;;;3.20;;
49029;SDS011;43337;52.070;4.508;2022-07-30T01:55:44;9.43;;;4.05;;
49029;SDS011;43337;52.070;4.508;2022-07-30T01:58:11;7.63;;;3.40;;
49029;SDS011;43337;52.070;4.508;2022-07-30T02:00:39;7.15;;;3.67;;
49029;SDS011;43337;52.070;4.508;2022-07-30T02:03:07;10.75;;;3.63;;
49029;SDS011;43337;52.070;4.508;2022-07-30T02:05:35;6.90;;;3.55;;
49029;SDS011;43337;52.070;4.508;2022-07-30T02:10:43;12.38;;;4.10;;
49029;SDS011;43337;52.070;4.508;2022-07-30T02:13:14;10.07;;;3.60;;
49029;SDS011;43337;52.070;4.508;2022-07-30T02:15:46;9.10;;;4.03;;
49029;SDS011;43337;52.070;4.508;2022-07-30T02:18:17;8.52;;;3.50;;
49029;SDS011;43337;52.070;4.508;2022-07-30T02:20:50;7.85;;;3.40;;
49029;SDS011;43337;52.070;4.508;2022-07-30T02:23:20;7.65;;;2.97;;
49029;SDS011;43337;52.070;4.508;2022-07-30T02:25:48;9.50;;;4.18;;
49029;SDS011;43337;52.070;4.508;2022-07-30T02:28:16;10.52;;;3.72;;
49029;SDS011;43337;52.070;4.508;2022-07-30T02:30:51;8.55;;;3.80;;
49029;SDS011;43337;52.070;4.508;2022-07-30T02:33:22;9.07;;;3.50;;
49029;SDS011;43337;52.070;4.508;2022-07-30T02:35:51;9.88;;;3.45;;
49029;SDS011;43337;52.070;4.508;2022-07-30T02:38:20;11.63;;;3.40;;
49029;SDS011;43337;52.070;4.508;2022-07-30T02:40:47;6.82;;;3.28;;
49029;SDS011;43337;52.070;4.508;2022-07-30T02:43:13;8.85;;;3.15;;
49029;SDS011;43337;52.070;4.508;2022-07-30T02:45:40;6.90;;;3.22;;
49029;SDS011;43337;52.070;4.508;2022-07-30T02:48:08;10.40;;;3.63;;
49029;SDS011;43337;52.070;4.508;2022-07-30T02:50:35;7.20;;;3.20;;
49029;SDS011;43337;52.070;4.508;2022-07-30T02:53:02;6.93;;;3.40;;
49029;SDS011;43337;52.070;4.508;2022-07-30T02:55:31;8.05;;;3.67;;
49029;SDS011;43337;52.070;4.508;2022-07-30T02:57:59;7.38;;;4.00;;
49029;SDS011;43337;52.070;4.508;2022-07-30T03:00:28;7.20;;;3.67;;
49029;SDS011;43337;52.070;4.508;2022-07-30T03:02:55;6.63;;;3.42;;
49029;SDS011;43337;52.070;4.508;2022-07-30T03:05:21;8.75;;;3.45;;
49029;SDS011;43337;52.070;4.508;2022-07-30T03:07:47;7.38;;;3.47;;
49029;SDS011;43337;52.070;4.508;2022-07-30T03:10:13;7.32;;;3.60;;
49029;SDS011;43337;52.070;4.508;2022-07-30T03:12:40;7.32;;;3.40;;
49029;SDS011;43337;52.070;4.508;2022-07-30T03:15:09;8.18;;;3.38;;
49029;SDS011;43337;52.070;4.508;2022-07-30T03:17:42;7.78;;;3.63;;
49029;SDS011;43337;52.070;4.508;2022-07-30T03:20:11;7.00;;;3.40;;
49029;SDS011;43337;52.070;4.508;2022-07-30T03:22:40;8.90;;;3.80;;
49029;SDS011;43337;52.070;4.508;2022-07-30T03:25:08;10.57;;;3.70;;
49029;SDS011;43337;52.070;4.508;2022-07-30T03:27:35;7.05;;;3.65;;
49029;SDS011;43337;52.070;4.508;2022-07-30T03:30:02;10.00;;;3.78;;
49029;SDS011;43337;52.070;4.508;2022-07-30T03:32:29;8.68;;;3.35;;
49029;SDS011;43337;52.070;4.508;2022-07-30T03:34:55;10.85;;;3.90;;
49029;SDS011;43337;52.070;4.508;2022-07-30T03:37:23;10.65;;;3.88;;
49029;SDS011;43337;52.070;4.508;2022-07-30T03:39:50;10.48;;;3.85;;
49029;SDS011;43337;52.070;4.508;2022-07-30T03:42:16;8.95;;;4.00;;
49029;SDS011;43337;52.070;4.508;2022-07-30T03:44:41;8.75;;;3.58;;
49029;SDS011;43337;52.070;4.508;2022-07-30T03:47:09;9.02;;;3.78;;
49029;SDS011;43337;52.070;4.508;2022-07-30T03:49:37;8.13;;;3.67;;
49029;SDS011;43337;52.070;4.508;2022-07-30T03:52:03;6.90;;;3.78;;
49029;SDS011;43337;52.070;4.508;2022-07-30T03:54:29;9.32;;;4.60;;
49029;SDS011;43337;52.070;4.508;2022-07-30T03:56:58;6.20;;;3.60;;
49029;SDS011;43337;52.070;4.508;2022-07-30T03:59:25;8.85;;;3.67;;
49029;SDS011;43337;52.070;4.508;2022-07-30T04:01:50;9.25;;;4.97;;
49029;SDS011;43337;52.070;4.508;2022-07-30T04:04:16;7.45;;;3.78;;
49029;SDS011;43337;52.070;4.508;2022-07-30T04:06:42;12.05;;;4.78;;
49029;SDS011;43337;52.070;4.508;2022-07-30T04:09:08;8.80;;;3.65;;
49029;SDS011;43337;52.070;4.508;2022-07-30T04:11:34;8.45;;;4.40;;
49029;SDS011;43337;52.070;4.508;2022-07-30T04:14:00;9.60;;;4.00;;
49029;SDS011;43337;52.070;4.508;2022-07-30T04:19:09;6.50;;;4.20;;
49029;SDS011;43337;52.070;4.508;2022-07-30T04:21:45;7.18;;;3.80;;
49029;SDS011;43337;52.070;4.508;2022-07-30T04:24:13;7.65;;;3.85;;
49029;SDS011;43337;52.070;4.508;2022-07-30T04:26:41;9.70;;;3.70;;
49029;SDS011;43337;52.070;4.508;2022-07-30T04:29:07;9.52;;;4.07;;
49029;SDS011;43337;52.070;4.508;2022-07-30T04:31:34;7.18;;;3.25;;
49029;SDS011;43337;52.070;4.508;2022-07-30T04:34:01;7.82;;;3.40;;
49029;SDS011;43337;52.070;4.508;2022-07-30T04:36:27;6.78;;;3.22;;
49029;SDS011;43337;52.070;4.508;2022-07-30T04:38:54;6.80;;;3.58;;
49029;SDS011;43337;52.070;4.508;2022-07-30T04:41:20;8.30;;;3.80;;
49029;SDS011;43337;52.070;4.508;2022-07-30T04:43:46;11.00;;;3.67;;
49029;SDS011;43337;52.070;4.508;2022-07-30T04:46:12;11.43;;;3.80;;
49029;SDS011;43337;52.070;4.508;2022-07-30T04:48:38;7.55;;;4.60;;
49029;SDS011;43337;52.070;4.508;2022-07-30T04:51:04;8.32;;;3.40;;
49029;SDS011;43337;52.070;4.508;2022-07-30T04:53:35;6.55;;;3.28;;
49029;SDS011;43337;52.070;4.508;2022-07-30T04:56:02;7.00;;;3.28;;
49029;SDS011;43337;52.070;4.508;2022-07-30T04:58:29;8.02;;;3.33;;
49029;SDS011;43337;52.070;4.508;2022-07-30T05:00:55;6.80;;;3.10;;
49029;SDS011;43337;52.070;4.508;2022-07-30T05:03:22;7.63;;;3.63;;
49029;SDS011;43337;52.070;4.508;2022-07-30T05:05:48;6.72;;;3.10;;
49029;SDS011;43337;52.070;4.508;2022-07-30T05:08:15;12.38;;;3.58;;
49029;SDS011;43337;52.070;4.508;2022-07-30T05:10:41;7.55;;;3.30;;
49029;SDS011;43337;52.070;4.508;2022-07-30T05:13:11;8.98;;;3.67;;
49029;SDS011;43337;52.070;4.508;2022-07-30T05:15:37;8.70;;;3.25;;
49029;SDS011;43337;52.070;4.508;2022-07-30T05:18:03;5.38;;;2.88;;
49029;SDS011;43337;52.070;4.508;2022-07-30T05:20:28;5.68;;;2.95;;
49029;SDS011;43337;52.070;4.508;2022-07-30T05:22:53;7.78;;;3.38;;
49029;SDS011;43337;52.070;4.508;2022-07-30T05:25:19;6.75;;;3.90;;
49029;SDS011;43337;52.070;4.508;2022-07-30T05:27:44;6.72;;;3.50;;
49029;SDS011;43337;52.070;4.508;2022-07-30T05:30:10;7.15;;;3.72;;
49029;SDS011;43337;52.070;4.508;2022-07-30T05:32:35;7.38;;;3.28;;
49029;SDS011;43337;52.070;4.508;2022-07-30T05:35:01;8.73;;;2.75;;
49029;SDS011;43337;52.070;4.508;2022-07-30T05:37:26;10.32;;;3.65;;
49029;SDS011;43337;52.070;4.508;2022-07-30T05:39:52;7.13;;;2.70;;
49029;SDS011;43337;52.070;4.508;2022-07-30T05:42:18;8.43;;;3.22;;
49029;SDS011;43337;52.070;4.508;2022-07-30T05:44:43;10.60;;;2.70;;
49029;SDS011;43337;52.070;4.508;2022-07-30T05:47:08;6.57;;;2.45;;
49029;SDS011;43337;52.070;4.508;2022-07-30T05:49:33;5.20;;;2.30;;
49029;SDS011;43337;52.070;4.508;2022-07-30T05:51:59;8.20;;;2.20;;
49029;SDS011;43337;52.070;4.508;2022-07-30T05:54:24;5.63;;;2.55;;
49029;SDS011;43337;52.070;4.508;2022-07-30T05:56:50;4.82;;;2.35;;
49029;SDS011;43337;52.070;4.508;2022-07-30T05:59:15;6.38;;;2.53;;
49029;SDS011;43337;52.070;4.508;2022-07-30T06:01:40;6.28;;;2.33;;
49029;SDS011;43337;52.070;4.508;2022-07-30T06:04:06;7.20;;;2.50;;
49029;SDS011;43337;52.070;4.508;2022-07-30T06:06:31;6.47;;;2.50;;
49029;SDS011;43337;52.070;4.508;2022-07-30T06:08:56;12.82;;;4.78;;
49029;SDS011;43337;52.070;4.508;2022-07-30T06:11:22;9.55;;;2.72;;
49029;SDS011;43337;52.070;4.508;2022-07-30T06:13:47;9.50;;;2.78;;
49029;SDS011;43337;52.070;4.508;2022-07-30T06:16:13;6.22;;;2.30;;
49029;SDS011;43337;52.070;4.508;2022-07-30T06:18:38;4.25;;;1.95;;
49029;SDS011;43337;52.070;4.508;2022-07-30T06:21:04;3.60;;;1.95;;
49029;SDS011;43337;52.070;4.508;2022-07-30T06:23:29;7.00;;;2.05;;
49029;SDS011;43337;52.070;4.508;2022-07-30T06:25:55;5.28;;;1.65;;
49029;SDS011;43337;52.070;4.508;2022-07-30T06:28:20;5.28;;;1.50;;
49029;SDS011;43337;52.070;4.508;2022-07-30T06:30:45;13.85;;;7.22;;
49029;SDS011;43337;52.070;4.508;2022-07-30T06:33:12;3.95;;;2.08;;
49029;SDS011;43337;52.070;4.508;2022-07-30T06:35:38;5.90;;;2.38;;
49029;SDS011;43337;52.070;4.508;2022-07-30T06:38:04;3.08;;;1.40;;
49029;SDS011;43337;52.070;4.508;2022-07-30T06:40:29;4.20;;;1.52;;
49029;SDS011;43337;52.070;4.508;2022-07-30T06:42:55;4.18;;;1.48;;
49029;SDS011;43337;52.070;4.508;2022-07-30T06:45:20;4.90;;;1.20;;
49029;SDS011;43337;52.070;4.508;2022-07-30T06:47:45;6.40;;;1.95;;
49029;SDS011;43337;52.070;4.508;2022-07-30T06:50:11;14.15;;;1.42;;
49029;SDS011;43337;52.070;4.508;2022-07-30T06:52:36;5.72;;;1.60;;
49029;SDS011;43337;52.070;4.508;2022-07-30T06:55:02;6.22;;;2.17;;
49029;SDS011;43337;52.070;4.508;2022-07-30T06:57:28;6.05;;;1.55;;
49029;SDS011;43337;52.070;4.508;2022-07-30T06:59:53;5.32;;;1.88;;
49029;SDS011;43337;52.070;4.508;2022-07-30T07:02:19;6.35;;;1.35;;
49029;SDS011;43337;52.070;4.508;2022-07-30T07:04:44;9.02;;;1.30;;
49029;SDS011;43337;52.070;4.508;2022-07-30T07:07:10;5.45;;;1.95;;
49029;SDS011;43337;52.070;4.508;2022-07-30T07:09:35;7.85;;;3.80;;
49029;SDS011;43337;52.070;4.508;2022-07-30T07:12:00;7.55;;;1.67;;
49029;SDS011;43337;52.070;4.508;2022-07-30T07:14:26;6.35;;;1.20;;
49029;SDS011;43337;52.070;4.508;2022-07-30T07:16:51;4.60;;;1.17;;
49029;SDS011;43337;52.070;4.508;2022-07-30T07:19:17;2.45;;;0.90;;
49029;SDS011;43337;52.070;4.508;2022-07-30T07:21:42;4.28;;;1.13;;
49029;SDS011;43337;52.070;4.508;2022-07-30T07:24:07;5.72;;;1.35;;
49029;SDS011;43337;52.070;4.508;2022-07-30T07:26:33;2.97;;;1.40;;
49029;SDS011;43337;52.070;4.508;2022-07-30T07:28:58;4.05;;;1.10;;
49029;SDS011;43337;52.070;4.508;2022-07-30T07:31:24;2.30;;;1.27;;
49029;SDS011;43337;52.070;4.508;2022-07-30T07:33:50;4.05;;;1.00;;
49029;SDS011;43337;52.070;4.508;2022-07-30T07:36:18;5.80;;;1.30;;
49029;SDS011;43337;52.070;4.508;2022-07-30T07:38:46;2.92;;;1.10;;
49029;SDS011;43337;52.070;4.508;2022-07-30T07:41:12;5.32;;;1.20;;
49029;SDS011;43337;52.070;4.508;2022-07-30T07:43:38;3.92;;;1.17;;
49029;SDS011;43337;52.070;4.508;2022-07-30T07:46:04;2.38;;;0.88;;
49029;SDS011;43337;52.070;4.508;2022-07-30T07:48:30;3.28;;;1.10;;
49029;SDS011;43337;52.070;4.508;2022-07-30T07:50:55;4.47;;;1.05;;
49029;SDS011;43337;52.070;4.508;2022-07-30T07:53:21;4.85;;;1.00;;
49029;SDS011;43337;52.070;4.508;2022-07-30T07:55:46;5.30;;;1.13;;
49029;SDS011;43337;52.070;4.508;2022-07-30T07:58:11;3.17;;;1.10;;
49029;SDS011;43337;52.070;4.508;2022-07-30T08:00:38;3.35;;;1.38;;
49029;SDS011;43337;52.070;4.508;2022-07-30T08:03:03;3.70;;;1.00;;
49029;SDS011;43337;52.070;4.508;2022-07-30T08:05:29;3.25;;;0.90;;
49029;SDS011;43337;52.070;4.508;2022-07-30T08:07:55;3.78;;;1.00;;
49029;SDS011;43337;52.070;4.508;2022-07-30T08:10:20;4.68;;;1.33;;
49029;SDS011;43337;52.070;4.508;2022-07-30T08:12:45;4.45;;;1.35;;
49029;SDS011;43337;52.070;4.508;2022-07-30T08:15:11;3.55;;;1.10;;
49029;SDS011;43337;52.070;4.508;2022-07-30T08:17:42;2.75;;;1.20;;
49029;SDS011;43337;52.070;4.508;2022-07-30T08:20:09;4.65;;;0.98;;
49029;SDS011;43337;52.070;4.508;2022-07-30T08:22:35;5.22;;;1.58;;
49029;SDS011;43337;52.070;4.508;2022-07-30T08:25:01;5.10;;;1.20;;
49029;SDS011;43337;52.070;4.508;2022-07-30T08:27:27;3.28;;;0.90;;
49029;SDS011;43337;52.070;4.508;2022-07-30T08:29:53;2.75;;;0.70;;
49029;SDS011;43337;52.070;4.508;2022-07-30T08:32:18;3.63;;;1.10;;
49029;SDS011;43337;52.070;4.508;2022-07-30T08:34:47;4.03;;;1.00;;
49029;SDS011;43337;52.070;4.508;2022-07-30T08:37:13;4.20;;;1.60;;
49029;SDS011;43337;52.070;4.508;2022-07-30T08:39:39;2.30;;;0.88;;
49029;SDS011;43337;52.070;4.508;2022-07-30T08:42:04;2.72;;;0.80;;
49029;SDS011;43337;52.070;4.508;2022-07-30T08:44:31;2.75;;;1.00;;
49029;SDS011;43337;52.070;4.508;2022-07-30T08:46:57;2.50;;;1.00;;
49029;SDS011;43337;52.070;4.508;2022-07-30T08:49:25;3.65;;;1.08;;
49029;SDS011;43337;52.070;4.508;2022-07-30T08:51:51;3.00;;;0.80;;
49029;SDS011;43337;52.070;4.508;2022-07-30T08:54:18;2.45;;;0.90;;
49029;SDS011;43337;52.070;4.508;2022-07-30T08:56:43;4.13;;;1.00;;
49029;SDS011;43337;52.070;4.508;2022-07-30T08:59:09;3.10;;;1.23;;
49029;SDS011;43337;52.070;4.508;2022-07-30T09:01:35;5.15;;;1.10;;
49029;SDS011;43337;52.070;4.508;2022-07-30T09:04:01;4.25;;;1.20;;
49029;SDS011;43337;52.070;4.508;2022-07-30T09:06:26;4.97;;;1.15;;
49029;SDS011;43337;52.070;4.508;2022-07-30T09:08:52;5.43;;;1.30;;
49029;SDS011;43337;52.070;4.508;2022-07-30T09:11:18;3.35;;;1.10;;
49029;SDS011;43337;52.070;4.508;2022-07-30T09:13:44;5.18;;;1.58;;
49029;SDS011;43337;52.070;4.508;2022-07-30T09:16:19;3.72;;;1.20;;
49029;SDS011;43337;52.070;4.508;2022-07-30T09:18:50;4.40;;;1.20;;
49029;SDS011;43337;52.070;4.508;2022-07-30T09:26:29;3.83;;;0.98;;
49029;SDS011;43337;52.070;4.508;2022-07-30T09:29:15;2.22;;;1.00;;
49029;SDS011;43337;52.070;4.508;2022-07-30T09:31:55;3.88;;;1.13;;
49029;SDS011;43337;52.070;4.508;2022-07-30T09:34:30;3.35;;;0.93;;
49029;SDS011;43337;52.070;4.508;2022-07-30T09:37:01;3.42;;;0.98;;
49029;SDS011;43337;52.070;4.508;2022-07-30T09:39:32;3.70;;;1.10;;
49029;SDS011;43337;52.070;4.508;2022-07-30T09:41:58;3.00;;;1.08;;
49029;SDS011;43337;52.070;4.508;2022-07-30T09:44:24;3.47;;;0.80;;
49029;SDS011;43337;52.070;4.508;2022-07-30T09:46:51;7.88;;;2.30;;
49029;SDS011;43337;52.070;4.508;2022-07-30T09:49:18;6.50;;;1.33;;
49029;SDS011;43337;52.070;4.508;2022-07-30T09:51:49;4.38;;;1.10;;
49029;SDS011;43337;52.070;4.508;2022-07-30T09:54:15;4.25;;;1.13;;
49029;SDS011;43337;52.070;4.508;2022-07-30T09:56:41;3.60;;;1.00;;
49029;SDS011;43337;52.070;4.508;2022-07-30T09:59:29;4.55;;;1.20;;
49029;SDS011;43337;52.070;4.508;2022-07-30T10:01:56;3.08;;;1.02;;
49029;SDS011;43337;52.070;4.508;2022-07-30T10:04:23;7.32;;;1.27;;
49029;SDS011;43337;52.070;4.508;2022-07-30T10:06:53;4.32;;;1.10;;
49029;SDS011;43337;52.070;4.508;2022-07-30T10:09:25;3.00;;;0.90;;
49029;SDS011;43337;52.070;4.508;2022-07-30T10:11:56;5.22;;;1.40;;
49029;SDS011;43337;52.070;4.508;2022-07-30T10:14:24;4.18;;;1.17;;
49029;SDS011;43337;52.070;4.508;2022-07-30T10:16:52;4.40;;;1.73;;
49029;SDS011;43337;52.070;4.508;2022-07-30T10:19:18;2.80;;;0.80;;
49029;SDS011;43337;52.070;4.508;2022-07-30T10:21:45;3.47;;;0.90;;
49029;SDS011;43337;52.070;4.508;2022-07-30T10:24:12;2.85;;;1.00;;
49029;SDS011;43337;52.070;4.508;2022-07-30T10:26:41;3.45;;;1.20;;
49029;SDS011;43337;52.070;4.508;2022-07-30T10:29:07;3.75;;;1.17;;
49029;SDS011;43337;52.070;4.508;2022-07-30T10:31:33;4.35;;;0.98;;
49029;SDS011;43337;52.070;4.508;2022-07-30T10:33:59;3.13;;;0.98;;
49029;SDS011;43337;52.070;4.508;2022-07-30T10:36:25;3.60;;;0.90;;
49029;SDS011;43337;52.070;4.508;2022-07-30T10:38:52;6.13;;;1.25;;
49029;SDS011;43337;52.070;4.508;2022-07-30T10:49:25;2.92;;;0.90;;
49029;SDS011;43337;52.070;4.508;2022-07-30T10:51:51;3.47;;;0.93;;
49029;SDS011;43337;52.070;4.508;2022-07-30T10:57:05;3.05;;;0.90;;
49029;SDS011;43337;52.070;4.508;2022-07-30T11:00:08;3.88;;;1.20;;
49029;SDS011;43337;52.070;4.508;2022-07-30T11:02:27;3.60;;;1.13;;
49029;SDS011;43337;52.070;4.508;2022-07-30T11:07:44;2.72;;;0.70;;
49029;SDS011;43337;52.070;4.508;2022-07-30T11:13:05;4.13;;;0.97;;
49029;SDS011;43337;52.070;4.508;2022-07-30T11:15:50;4.13;;;0.88;;
49029;SDS011;43337;52.070;4.508;2022-07-30T11:18:20;3.97;;;0.90;;
49029;SDS011;43337;52.070;4.508;2022-07-30T11:21:32;4.97;;;1.20;;
49029;SDS011;43337;52.070;4.508;2022-07-30T11:23:43;3.25;;;1.00;;
49029;SDS011;43337;52.070;4.508;2022-07-30T11:26:10;3.33;;;0.90;;
49029;SDS011;43337;52.070;4.508;2022-07-30T11:29:06;3.67;;;1.10;;
49029;SDS011;43337;52.070;4.508;2022-07-30T11:40:11;4.25;;;1.20;;
49029;SDS011;43337;52.070;4.508;2022-07-30T11:42:30;2.22;;;0.80;;
49029;SDS011;43337;52.070;4.508;2022-07-30T11:47:55;2.25;;;0.75;;
49029;SDS011;43337;52.070;4.508;2022-07-30T11:50:22;2.55;;;1.20;;
49029;SDS011;43337;52.070;4.508;2022-07-30T11:55:50;2.78;;;0.90;;
49029;SDS011;43337;52.070;4.508;2022-07-30T12:00:57;3.50;;;1.13;;
49029;SDS011;43337;52.070;4.508;2022-07-30T12:03:25;4.18;;;1.40;;
49029;SDS011;43337;52.070;4.508;2022-07-30T12:05:52;7.15;;;1.38;;
49029;SDS011;43337;52.070;4.508;2022-07-30T12:08:19;3.78;;;1.10;;
49029;SDS011;43337;52.070;4.508;2022-07-30T12:10:55;3.20;;;1.30;;
49029;SDS011;43337;52.070;4.508;2022-07-30T12:13:22;3.85;;;1.40;;
49029;SDS011;43337;52.070;4.508;2022-07-30T12:15:48;3.53;;;1.10;;
49029;SDS011;43337;52.070;4.508;2022-07-30T12:18:21;8.32;;;1.40;;
49029;SDS011;43337;52.070;4.508;2022-07-30T12:20:55;3.88;;;1.50;;
49029;SDS011;43337;52.070;4.508;2022-07-30T12:23:22;3.60;;;1.08;;
49029;SDS011;43337;52.070;4.508;2022-07-30T12:25:48;5.10;;;1.30;;
49029;SDS011;43337;52.070;4.508;2022-07-30T12:28:20;7.40;;;1.25;;
49029;SDS011;43337;52.070;4.508;2022-07-30T12:30:51;2.90;;;1.00;;
49029;SDS011;43337;52.070;4.508;2022-07-30T12:33:18;3.90;;;1.08;;
49029;SDS011;43337;52.070;4.508;2022-07-30T12:35:48;13.98;;;2.03;;
49029;SDS011;43337;52.070;4.508;2022-07-30T12:38:15;3.08;;;1.02;;
49029;SDS011;43337;52.070;4.508;2022-07-30T12:41:00;2.95;;;0.90;;
49029;SDS011;43337;52.070;4.508;2022-07-30T12:46:10;2.65;;;1.23;;
49029;SDS011;43337;52.070;4.508;2022-07-30T12:48:37;4.85;;;1.08;;
49029;SDS011;43337;52.070;4.508;2022-07-30T12:51:12;4.20;;;1.27;;
49029;SDS011;43337;52.070;4.508;2022-07-30T12:53:37;4.85;;;1.40;;
49029;SDS011;43337;52.070;4.508;2022-07-30T12:56:12;3.53;;;1.20;;
49029;SDS011;43337;52.070;4.508;2022-07-30T12:58:43;3.22;;;0.90;;
49029;SDS011;43337;52.070;4.508;2022-07-30T13:01:08;4.80;;;1.30;;
49029;SDS011;43337;52.070;4.508;2022-07-30T13:03:35;4.32;;;1.20;;
49029;SDS011;43337;52.070;4.508;2022-07-30T13:06:13;4.45;;;2.35;;
49029;SDS011;43337;52.070;4.508;2022-07-30T13:08:44;6.13;;;1.73;;
49029;SDS011;43337;52.070;4.508;2022-07-30T13:11:12;5.53;;;1.95;;
49029;SDS011;43337;52.070;4.508;2022-07-30T13:13:38;9.65;;;1.65;;
49029;SDS011;43337;52.070;4.508;2022-07-30T13:16:04;4.40;;;1.20;;
49029;SDS011;43337;52.070;4.508;2022-07-30T13:18:32;6.57;;;1.83;;
49029;SDS011;43337;52.070;4.508;2022-07-30T13:20:59;3.22;;;1.42;;
49029;SDS011;43337;52.070;4.508;2022-07-30T13:23:26;5.68;;;1.40;;
49029;SDS011;43337;52.070;4.508;2022-07-30T13:25:51;4.88;;;1.10;;
49029;SDS011;43337;52.070;4.508;2022-07-30T13:28:17;4.35;;;1.27;;
49029;SDS011;43337;52.070;4.508;2022-07-30T13:30:43;4.13;;;1.33;;
49029;SDS011;43337;52.070;4.508;2022-07-30T13:33:08;3.85;;;1.38;;
49029;SDS011;43337;52.070;4.508;2022-07-30T13:35:33;3.95;;;1.48;;
49029;SDS011;43337;52.070;4.508;2022-07-30T13:37:59;4.75;;;1.50;;
49029;SDS011;43337;52.070;4.508;2022-07-30T13:40:26;5.90;;;1.33;;
49029;SDS011;43337;52.070;4.508;2022-07-30T13:42:51;3.35;;;1.17;;
49029;SDS011;43337;52.070;4.508;2022-07-30T13:45:17;4.10;;;1.15;;
49029;SDS011;43337;52.070;4.508;2022-07-30T13:47:42;2.95;;;1.10;;
49029;SDS011;43337;52.070;4.508;2022-07-30T13:50:08;6.63;;;1.40;;
49029;SDS011;43337;52.070;4.508;2022-07-30T13:52:33;6.20;;;1.38;;
49029;SDS011;43337;52.070;4.508;2022-07-30T13:54:59;5.60;;;1.35;;
49029;SDS011;43337;52.070;4.508;2022-07-30T13:57:24;5.30;;;1.60;;
49029;SDS011;43337;52.070;4.508;2022-07-30T13:59:50;3.58;;;1.30;;
49029;SDS011;43337;52.070;4.508;2022-07-30T14:02:19;4.72;;;1.35;;
49029;SDS011;43337;52.070;4.508;2022-07-30T14:04:44;5.50;;;1.58;;
49029;SDS011;43337;52.070;4.508;2022-07-30T14:07:10;3.75;;;1.58;;
49029;SDS011;43337;52.070;4.508;2022-07-30T14:09:35;6.75;;;1.48;;
49029;SDS011;43337;52.070;4.508;2022-07-30T14:12:01;5.97;;;1.40;;
49029;SDS011;43337;52.070;4.508;2022-07-30T14:14:26;4.97;;;1.10;;
49029;SDS011;43337;52.070;4.508;2022-07-30T14:16:51;4.93;;;1.95;;
49029;SDS011;43337;52.070;4.508;2022-07-30T14:19:17;3.97;;;1.45;;
49029;SDS011;43337;52.070;4.508;2022-07-30T14:21:43;3.92;;;1.50;;
49029;SDS011;43337;52.070;4.508;2022-07-30T14:24:09;3.72;;;1.45;;
49029;SDS011;43337;52.070;4.508;2022-07-30T14:26:37;3.85;;;1.20;;
49029;SDS011;43337;52.070;4.508;2022-07-30T14:29:03;8.02;;;1.70;;
49029;SDS011;43337;52.070;4.508;2022-07-30T14:31:29;5.53;;;1.48;;
49029;SDS011;43337;52.070;4.508;2022-07-30T14:33:54;4.13;;;1.33;;
49029;SDS011;43337;52.070;4.508;2022-07-30T14:36:20;5.72;;;1.50;;
49029;SDS011;43337;52.070;4.508;2022-07-30T14:38:46;5.57;;;1.60;;
49029;SDS011;43337;52.070;4.508;2022-07-30T14:41:11;7.20;;;1.33;;
49029;SDS011;43337;52.070;4.508;2022-07-30T14:43:37;5.07;;;1.38;;
49029;SDS011;43337;52.070;4.508;2022-07-30T14:46:02;8.38;;;1.55;;
49029;SDS011;43337;52.070;4.508;2022-07-30T14:48:27;3.33;;;1.15;;
49029;SDS011;43337;52.070;4.508;2022-07-30T14:50:53;4.00;;;1.30;;
49029;SDS011;43337;52.070;4.508;2022-07-30T14:53:18;3.63;;;1.33;;
49029;SDS011;43337;52.070;4.508;2022-07-30T14:55:44;4.20;;;1.30;;
49029;SDS011;43337;52.070;4.508;2022-07-30T14:58:09;6.65;;;1.85;;
49029;SDS011;43337;52.070;4.508;2022-07-30T15:00:34;5.97;;;1.50;;
49029;SDS011;43337;52.070;4.508;2022-07-30T15:03:00;6.07;;;3.08;;
49029;SDS011;43337;52.070;4.508;2022-07-30T15:05:25;4.70;;;1.73;;
49029;SDS011;43337;52.070;4.508;2022-07-30T15:07:50;2.70;;;1.20;;
49029;SDS011;43337;52.070;4.508;2022-07-30T15:10:16;5.38;;;1.75;;
49029;SDS011;43337;52.070;4.508;2022-07-30T15:12:41;6.38;;;2.10;;
49029;SDS011;43337;52.070;4.508;2022-07-30T15:15:07;6.80;;;2.00;;
49029;SDS011;43337;52.070;4.508;2022-07-30T15:17:33;4.82;;;1.38;;
49029;SDS011;43337;52.070;4.508;2022-07-30T15:19:58;8.93;;;1.77;;
49029;SDS011;43337;52.070;4.508;2022-07-30T15:22:26;7.43;;;2.00;;
49029;SDS011;43337;52.070;4.508;2022-07-30T15:24:51;4.35;;;1.65;;
49029;SDS011;43337;52.070;4.508;2022-07-30T15:27:17;3.05;;;1.33;;
49029;SDS011;43337;52.070;4.508;2022-07-30T15:29:42;5.40;;;1.50;;
49029;SDS011;43337;52.070;4.508;2022-07-30T15:32:08;5.63;;;1.70;;
49029;SDS011;43337;52.070;4.508;2022-07-30T15:34:33;6.85;;;1.80;;